Time;durP1;ratioP1;P1;durP2;ratioP2;P2;SDS_P1;SDS_P2;PMS_P1;PMS_P2;Temp;Humidity;BMP_temperature;BMP_pressure;BME280_temperature;BME280_humidity;BME280_pressure;Samples;Min_cycle;Max_cycle;Signal;HPM_P1;HPM_P2
2022/05/25 00:01:32;;;;;;;3.80;2.40;;;;;;;14.51;40.79;100586.40;117101;1187;22719;-56
2022/05/25 00:04:00;;;;;;;3.30;2.40;;;;;;;14.48;40.87;100587.89;117344;1185;21901;-56
2022/05/25 00:06:27;;;;;;;5.40;2.50;;;;;;;14.44;40.80;100589.03;117117;1187;22718;-56
2022/05/25 00:08:54;;;;;;;6.10;2.50;;;;;;;14.41;40.94;100588.41;117169;1185;23467;-48
2022/05/25 00:11:21;;;;;;;3.10;2.30;;;;;;;14.38;40.82;100593.59;117336;1186;23557;-56
2022/05/25 00:13:48;;;;;;;4.30;2.50;;;;;;;14.35;41.04;100595.98;117296;1186;21851;-56
2022/05/25 00:16:16;;;;;;;4.70;2.80;;;;;;;14.31;40.96;100596.77;117443;1186;22902;-49
2022/05/25 00:21:30;;;;;;;4.10;2.10;;;;;;;14.29;41.00;100598.77;117091;1186;22928;-56
2022/05/25 00:23:58;;;;;;;3.50;2.40;;;;;;;14.26;41.07;100598.10;117345;1185;23459;-56
2022/05/25 00:26:26;;;;;;;4.80;2.60;;;;;;;14.26;41.17;100596.53;117343;1184;23605;-56
2022/05/25 00:28:53;;;;;;;3.10;2.20;;;;;;;14.25;41.13;100598.15;117267;1186;22892;-56
2022/05/25 00:31:20;;;;;;;4.60;2.30;;;;;;;14.21;41.22;100599.29;117331;1182;24228;-56
2022/05/25 00:33:47;;;;;;;3.80;2.30;;;;;;;14.17;41.24;100598.14;117351;1186;22921;-56
2022/05/25 00:36:14;;;;;;;4.00;2.40;;;;;;;14.12;41.24;100598.45;117251;1186;21883;-56
2022/05/25 00:38:42;;;;;;;4.50;2.50;;;;;;;14.08;41.20;100595.55;117320;1186;23468;-55
2022/05/25 00:41:09;;;;;;;4.90;2.40;;;;;;;14.04;41.24;100592.98;117334;1185;24170;-56
2022/05/25 00:43:37;;;;;;;3.90;2.10;;;;;;;14.01;41.22;100595.90;117368;1186;22404;-56
2022/05/25 00:46:06;;;;;;;2.70;2.10;;;;;;;13.98;41.31;100597.00;117306;1183;23458;-52
2022/05/25 00:48:38;;;;;;;3.40;2.30;;;;;;;13.97;41.27;100599.48;117376;1184;23031;-56
2022/05/25 00:51:15;;;;;;;3.10;2.00;;;;;;;13.96;41.37;100598.27;117386;1185;23639;-56
2022/05/25 00:53:43;;;;;;;3.60;2.20;;;;;;;13.94;41.44;100600.80;117381;1185;21842;-56
2022/05/25 00:56:14;;;;;;;3.80;2.50;;;;;;;13.93;41.49;100599.59;117309;1186;23463;-49
2022/05/25 00:58:45;;;;;;;3.00;2.40;;;;;;;13.90;41.38;100600.90;117377;1183;23633;-49
2022/05/25 01:01:12;;;;;;;4.60;2.00;;;;;;;13.88;41.58;100599.88;117398;1186;23429;-56
2022/05/25 01:03:39;;;;;;;3.40;2.20;;;;;;;13.88;41.54;100604.66;117361;1186;22905;-56
2022/05/25 01:06:19;;;;;;;3.80;2.30;;;;;;;13.85;41.53;100600.65;117355;1185;23538;-49
2022/05/25 01:08:59;;;;;;;3.20;2.30;;;;;;;13.85;41.53;100603.66;117350;1185;21866;-49
2022/05/25 01:11:48;;;;;;;7.90;1.90;;;;;;;13.83;41.60;100602.11;117383;1186;21887;-49
2022/05/25 01:14:32;;;;;;;4.00;2.20;;;;;;;13.81;41.81;100604.98;117278;1187;21846;-56
2022/05/25 01:17:03;;;;;;;4.50;2.60;;;;;;;13.78;41.71;100606.08;117115;1186;23442;-49
2022/05/25 01:20:06;;;;;;;3.90;2.20;;;;;;;13.76;41.70;100608.43;117467;1185;23570;-49
2022/05/25 01:22:58;;;;;;;3.50;2.00;;;;;;;13.72;41.79;100609.21;117297;1188;24156;-57
2022/05/25 01:25:34;;;;;;;4.90;2.60;;;;;;;13.67;41.82;100613.38;117118;1188;22805;-49
2022/05/25 01:28:07;;;;;;;5.10;2.10;;;;;;;13.65;41.96;100612.20;117295;1183;22479;-56
2022/05/25 01:30:35;;;;;;;3.90;2.60;;;;;;;13.61;41.83;100613.52;117451;1185;22982;-49
2022/05/25 01:33:08;;;;;;;3.80;2.40;;;;;;;13.56;41.91;100615.02;117277;1186;23539;-48
2022/05/25 01:35:44;;;;;;;4.60;2.50;;;;;;;13.52;41.97;100617.04;117060;1187;23796;-48
2022/05/25 01:38:40;;;;;;;2.60;2.10;;;;;;;13.49;41.93;100616.23;117378;1185;23538;-49
2022/05/25 01:41:50;;;;;;;3.40;2.30;;;;;;;13.45;42.05;100619.13;117317;1176;21847;-56
2022/05/25 01:44:21;;;;;;;6.40;2.60;;;;;;;13.42;42.05;100618.14;117144;1186;23474;-56
2022/05/25 01:46:51;;;;;;;3.20;2.10;;;;;;;13.38;42.09;100617.48;117345;1184;23634;-56
2022/05/25 01:49:21;;;;;;;4.90;2.40;;;;;;;13.35;42.11;100622.83;117310;1186;22697;-56
2022/05/25 01:52:00;;;;;;;4.50;2.50;;;;;;;13.33;42.18;100620.56;117141;1187;22920;-49
2022/05/25 01:54:30;;;;;;;3.90;2.00;;;;;;;13.31;42.04;100618.14;117071;1183;21851;-49
2022/05/25 01:56:58;;;;;;;5.20;2.30;;;;;;;13.29;42.07;100618.52;117243;1188;23541;-48
2022/05/25 01:59:25;;;;;;;4.50;2.10;;;;;;;13.29;42.26;100621.17;117286;1186;24152;-56
2022/05/25 02:04:47;;;;;;;5.10;2.10;;;;;;;13.28;42.36;100627.70;117281;1186;22950;-49
2022/05/25 02:07:26;;;;;;;5.60;2.40;;;;;;;13.29;42.26;100635.80;117120;1190;23645;-56
2022/05/25 02:10:08;;;;;;;3.60;2.30;;;;;;;13.28;42.39;100641.30;117311;1182;24153;-49
2022/05/25 02:13:01;;;;;;;6.30;2.30;;;;;;;13.25;42.41;100648.92;117281;1186;21902;-56
2022/05/25 02:15:31;;;;;;;6.90;2.50;;;;;;;13.11;42.42;100654.64;117289;1182;21858;-56
2022/05/25 02:18:33;;;;;;;4.20;2.10;;;;;;;13.12;42.34;100663.08;117254;1180;21857;-49
2022/05/25 02:21:10;;;;;;;3.30;1.80;;;;;;;13.11;42.20;100668.57;117145;1184;23454;-48
2022/05/25 02:23:57;;;;;;;3.10;1.90;;;;;;;13.04;42.34;100666.21;117332;1184;22912;-49
2022/05/25 02:26:30;;;;;;;4.90;2.50;;;;;;;12.98;42.18;100673.02;117153;1183;24149;-55
2022/05/25 02:29:05;;;;;;;6.40;2.10;;;;;;;12.86;42.23;100671.98;117208;1185;21857;-56
2022/05/25 02:31:36;;;;;;;4.20;3.00;;;;;;;12.72;42.39;100674.69;117260;1185;22873;-48
2022/05/25 02:34:05;;;;;;;6.40;2.30;;;;;;;12.67;42.22;100677.05;117497;1186;22905;-49
2022/05/25 02:36:34;;;;;;;3.50;2.10;;;;;;;12.57;42.42;100675.46;117284;1185;21843;-55
2022/05/25 02:39:06;;;;;;;8.60;2.50;;;;;;;12.49;42.54;100679.27;117257;1186;21853;-56
2022/05/25 02:41:35;;;;;;;11.20;2.60;;;;;;;12.40;42.55;100678.17;117329;1186;21861;-49
2022/05/25 02:44:02;;;;;;;10.30;3.20;;;;;;;12.34;42.60;100680.73;117307;1185;21854;-49
2022/05/25 02:46:29;;;;;;;7.20;2.90;;;;;;;12.32;42.66;100676.88;117294;1185;23439;-48
2022/05/25 02:48:56;;;;;;;4.50;2.50;;;;;;;12.35;42.64;100682.13;117342;1186;24226;-55
2022/05/25 02:51:24;;;;;;;3.60;2.10;;;;;;;12.39;42.63;100681.52;117372;1185;23443;-55
2022/05/25 02:53:52;;;;;;;4.70;2.50;;;;;;;12.38;42.89;100682.77;117429;1183;23637;-56
2022/05/25 02:56:19;;;;;;;4.30;2.70;;;;;;;12.41;43.08;100687.83;117182;1188;21835;-56
2022/05/25 02:58:47;;;;;;;6.60;2.20;;;;;;;12.47;42.95;100686.52;117299;1185;23450;-55
2022/05/25 03:01:15;;;;;;;6.90;3.00;;;;;;;12.49;42.96;100684.39;117245;1186;21845;-49
2022/05/25 03:03:41;;;;;;;4.20;2.30;;;;;;;12.51;43.01;100686.09;117248;1185;23439;-56
2022/05/25 03:06:09;;;;;;;9.30;2.40;;;;;;;12.51;42.93;100687.87;117318;1186;23352;-56
2022/05/25 03:08:35;;;;;;;8.90;2.50;;;;;;;12.51;43.10;100688.05;117121;1188;22451;-49
2022/05/25 03:11:04;;;;;;;3.80;2.50;;;;;;;12.50;43.12;100688.41;117302;1189;23437;-49
2022/05/25 03:13:31;;;;;;;6.20;2.60;;;;;;;12.51;43.09;100689.98;117322;1183;22927;-56
2022/05/25 03:15:59;;;;;;;6.70;2.30;;;;;;;12.55;43.19;100690.98;117332;1185;21907;-48
2022/05/25 03:18:26;;;;;;;4.70;2.40;;;;;;;12.61;43.41;100692.98;117456;1183;23512;-56
2022/05/25 03:20:53;;;;;;;9.40;2.30;;;;;;;12.67;43.49;100696.59;117302;1185;23586;-50
2022/05/25 03:23:21;;;;;;;11.70;2.70;;;;;;;12.73;43.44;100697.73;117367;1186;23602;-51
2022/05/25 03:25:48;;;;;;;8.50;2.90;;;;;;;12.79;43.42;100703.45;117116;1188;24160;-51
2022/05/25 03:28:15;;;;;;;9.10;3.20;;;;;;;12.88;43.60;100705.94;117262;1186;23531;-51
2022/05/25 03:30:43;;;;;;;6.30;2.50;;;;;;;12.99;43.69;100706.11;117302;1185;21848;-55
2022/05/25 03:33:10;;;;;;;9.10;2.50;;;;;;;13.12;43.75;100706.05;117378;1186;23564;-51
2022/05/25 03:35:37;;;;;;;6.30;3.10;;;;;;;13.33;43.76;100708.68;117345;1185;23466;-51
2022/05/25 03:38:05;;;;;;;6.50;2.50;;;;;;;13.43;44.00;100710.46;117310;1185;21877;-54
2022/05/25 03:40:32;;;;;;;5.50;2.60;;;;;;;13.56;43.89;100708.83;117182;1189;24152;-51
2022/05/25 03:42:58;;;;;;;6.50;2.50;;;;;;;13.67;44.07;100711.07;117166;1188;24148;-56
2022/05/25 03:45:26;;;;;;;11.30;2.80;;;;;;;13.78;43.83;100709.61;117351;1186;21855;-56
2022/05/25 03:47:53;;;;;;;12.50;3.00;;;;;;;13.90;44.10;100706.73;117313;1183;23544;-52
2022/05/25 03:50:20;;;;;;;6.70;3.10;;;;;;;14.02;43.96;100705.59;117306;1186;23478;-56
2022/05/25 03:52:48;;;;;;;4.80;2.40;;;;;;;14.16;44.11;100707.05;117289;1186;21855;-51
2022/05/25 03:55:15;;;;;;;7.90;2.50;;;;;;;14.30;44.20;100707.98;117355;1185;22989;-52
2022/05/25 03:57:42;;;;;;;8.50;2.40;;;;;;;14.44;44.26;100709.80;117147;1183;22996;-51
2022/05/25 04:00:11;;;;;;;8.80;2.70;;;;;;;14.59;44.34;100706.81;117342;1188;22040;-56
2022/05/25 04:02:38;;;;;;;4.20;2.80;;;;;;;14.75;44.32;100711.41;117331;1183;23640;-56
2022/05/25 04:05:10;;;;;;;5.50;2.30;;;;;;;14.90;44.41;100715.45;117349;1183;21839;-52
2022/05/25 04:07:40;;;;;;;4.70;2.50;;;;;;;15.05;44.29;100717.55;117291;1183;23491;-52
2022/05/25 04:10:11;;;;;;;10.00;2.90;;;;;;;15.18;44.14;100718.64;117388;1180;23551;-56
2022/05/25 04:12:39;;;;;;;5.00;2.50;;;;;;;15.31;44.29;100714.40;117308;1185;21850;-52
2022/05/25 04:15:07;;;;;;;4.30;2.50;;;;;;;15.44;44.37;100713.87;117402;1186;21858;-56
2022/05/25 04:17:34;;;;;;;5.30;1.90;;;;;;;15.60;44.42;100716.10;117271;1183;22631;-52
2022/05/25 04:20:03;;;;;;;4.10;2.40;;;;;;;15.79;44.40;100714.31;117274;1185;21855;-56
2022/05/25 04:22:32;;;;;;;5.50;1.90;;;;;;;16.01;44.32;100714.60;117224;1186;22920;-52
2022/05/25 04:24:59;;;;;;;6.70;2.20;;;;;;;16.16;44.44;100716.45;117265;1186;23457;-52
2022/05/25 04:27:27;;;;;;;5.80;2.00;;;;;;;16.35;44.51;100719.95;117316;1186;23454;-52
2022/05/25 04:29:54;;;;;;;3.00;2.00;;;;;;;16.57;44.62;100723.53;117375;1185;24166;-56
2022/05/25 04:32:21;;;;;;;5.90;2.10;;;;;;;16.82;44.69;100724.33;117274;1185;22905;-52
2022/05/25 04:34:47;;;;;;;4.30;2.30;;;;;;;17.07;44.73;100723.19;117249;1186;23539;-56
2022/05/25 04:40:01;;;;;;;7.50;2.30;;;;;;;17.64;44.64;100727.20;117303;1186;23441;-56
2022/05/25 04:42:29;;;;;;;6.60;2.70;;;;;;;17.90;44.84;100727.52;117321;1185;21858;-55
2022/05/25 04:45:03;;;;;;;4.20;1.90;;;;;;;18.24;44.73;100725.38;117205;1186;22908;-52
2022/05/25 04:47:31;;;;;;;3.60;1.60;;;;;;;18.48;44.49;100725.15;117208;1186;23640;-56
2022/05/25 04:49:58;;;;;;;3.10;1.80;;;;;;;18.68;44.39;100724.04;117129;1188;21853;-57
2022/05/25 04:52:25;;;;;;;3.30;1.40;;;;;;;18.91;44.32;100723.59;117231;1186;24149;-52
2022/05/25 04:54:53;;;;;;;3.80;1.50;;;;;;;19.13;44.15;100722.56;117360;1183;22965;-56
2022/05/25 04:57:20;;;;;;;1.80;1.10;;;;;;;19.32;44.11;100721.04;117253;1186;23465;-53
2022/05/25 04:59:51;;;;;;;2.20;1.20;;;;;;;19.53;43.95;100721.88;117253;1188;23522;-56
2022/05/25 05:02:19;;;;;;;5.70;1.30;;;;;;;19.77;44.02;100720.83;117266;1186;22531;-56
2022/05/25 05:04:47;;;;;;;4.30;1.50;;;;;;;20.08;43.98;100718.21;117218;1187;22910;-57
2022/05/25 05:07:15;;;;;;;6.80;1.60;;;;;;;20.30;43.67;100717.51;117225;1188;23441;-57
2022/05/25 05:09:43;;;;;;;4.80;1.40;;;;;;;20.46;43.53;100717.30;117368;1186;21858;-53
2022/05/25 05:12:12;;;;;;;2.90;1.10;;;;;;;20.69;43.57;100713.35;117269;1185;21843;-54
2022/05/25 05:14:39;;;;;;;2.20;1.20;;;;;;;20.92;43.44;100715.62;117199;1186;21864;-54
2022/05/25 05:17:06;;;;;;;5.00;1.20;;;;;;;21.14;43.27;100718.27;117052;1188;23502;-55
2022/05/25 05:19:34;;;;;;;3.80;1.10;;;;;;;21.29;43.05;100715.36;117240;1189;21852;-57
2022/05/25 05:22:01;;;;;;;4.80;3.90;;;;;;;21.40;42.84;100716.95;117314;1182;21854;-54
2022/05/25 05:24:29;;;;;;;3.60;1.90;;;;;;;21.51;42.83;100714.39;117326;1188;23586;-54
2022/05/25 05:26:56;;;;;;;2.10;1.30;;;;;;;21.68;42.84;100715.86;117307;1186;22835;-54
2022/05/25 05:29:24;;;;;;;2.60;1.40;;;;;;;21.87;42.81;100717.70;117172;1186;22899;-54
2022/05/25 05:31:52;;;;;;;3.10;1.20;;;;;;;22.00;42.58;100715.73;117188;1189;24721;-56
2022/05/25 05:34:19;;;;;;;4.00;1.00;;;;;;;22.15;42.52;100716.55;117284;1186;22906;-57
2022/05/25 05:36:53;;;;;;;4.00;1.30;;;;;;;22.30;42.44;100715.89;117246;1188;23529;-54
2022/05/25 05:39:21;;;;;;;5.70;1.40;;;;;;;22.42;42.27;100717.17;117144;1188;24165;-57
2022/05/25 05:41:54;;;;;;;2.80;1.10;;;;;;;22.59;42.26;100719.27;117162;1188;23540;-57
2022/05/25 05:44:24;;;;;;;2.90;1.10;;;;;;;22.77;42.09;100717.39;117381;1186;21954;-57
2022/05/25 05:46:50;;;;;;;1.50;0.80;;;;;;;22.92;42.07;100721.69;117311;1186;23481;-56
2022/05/25 05:49:17;;;;;;;5.80;1.30;;;;;;;23.09;42.06;100724.43;116949;1186;22912;-56
2022/05/25 05:51:44;;;;;;;1.40;0.90;;;;;;;23.26;42.04;100724.20;117645;1182;22922;-56
2022/05/25 05:54:12;;;;;;;2.50;1.20;;;;;;;23.47;41.98;100721.31;116897;1189;22810;-55
2022/05/25 05:56:39;;;;;;;2.30;1.10;;;;;;;23.69;42.00;100723.34;117044;1188;23529;-55
2022/05/25 05:59:06;;;;;;;2.50;1.10;;;;;;;23.92;41.80;100725.17;117143;1186;24207;-56
2022/05/25 06:01:34;;;;;;;2.50;0.90;;;;;;;24.11;41.53;100724.52;117186;1186;23439;-53
2022/05/25 06:04:02;;;;;;;3.60;1.10;;;;;;;24.22;41.36;100720.28;117179;1187;22619;-53
2022/05/25 06:06:29;;;;;;;1.90;0.90;;;;;;;24.27;41.25;100717.80;117030;1187;23644;-53
2022/05/25 06:08:56;;;;;;;2.80;0.90;;;;;;;24.32;41.17;100719.83;117134;1186;22935;-57
2022/05/25 06:11:23;;;;;;;4.00;1.10;;;;;;;24.45;41.32;100720.73;117262;1185;24283;-54
2022/05/25 06:13:51;;;;;;;1.30;0.90;;;;;;;24.63;41.13;100723.19;117272;1182;21856;-53
2022/05/25 06:22:02;;;;;;;2.60;0.90;;;;;;;25.30;40.67;100727.91;117186;1186;23762;-58
2022/05/25 06:24:37;;;;;;;2.10;1.20;;;;;;;25.44;40.48;100729.43;116871;1186;23450;-54
2022/05/25 06:27:08;;;;;;;4.20;1.20;;;;;;;25.49;40.29;100732.01;116976;1187;24145;-58
2022/05/25 06:29:37;;;;;;;2.20;0.80;;;;;;;25.43;40.02;100731.28;117086;1189;21940;-54
2022/05/25 06:32:05;;;;;;;2.90;1.00;;;;;;;25.47;39.98;100727.06;117065;1189;21846;-56
2022/05/25 06:34:32;;;;;;;3.60;1.00;;;;;;;25.54;39.83;100725.88;117191;1186;21998;-54
2022/05/25 06:37:00;;;;;;;1.60;0.80;;;;;;;25.61;39.76;100727.94;117086;1185;24180;-57
2022/05/25 06:39:28;;;;;;;2.10;1.30;;;;;;;25.66;39.77;100727.95;117292;1186;23545;-53
2022/05/25 06:41:54;;;;;;;5.90;1.20;;;;;;;25.77;39.78;100727.00;117313;1186;21836;-54
2022/05/25 06:44:22;;;;;;;2.40;0.90;;;;;;;25.95;39.66;100726.25;117193;1182;23445;-57
2022/05/25 06:46:51;;;;;;;1.60;0.80;;;;;;;26.14;39.61;100731.39;117422;1183;23577;-57
2022/05/25 06:49:18;;;;;;;1.60;0.70;;;;;;;26.34;39.65;100732.14;117423;1185;21960;-57
2022/05/25 06:51:46;;;;;;;1.60;0.80;;;;;;;26.52;39.30;100732.77;117230;1183;21942;-54
2022/05/25 06:54:17;;;;;;;1.50;0.80;;;;;;;26.70;39.25;100729.48;117376;1188;22909;-57
2022/05/25 06:56:44;;;;;;;2.40;0.90;;;;;;;26.90;39.15;100730.39;117279;1188;22616;-57
2022/05/25 06:59:11;;;;;;;1.40;0.60;;;;;;;26.99;38.79;100729.27;117038;1187;21850;-54
2022/05/25 07:01:38;;;;;;;1.80;0.60;;;;;;;27.03;38.62;100729.91;117210;1185;23576;-54
2022/05/25 07:04:06;;;;;;;1.40;0.80;;;;;;;27.05;38.55;100726.92;117113;1189;22974;-58
2022/05/25 07:06:35;;;;;;;1.30;0.80;;;;;;;27.06;38.33;100726.79;117137;1186;21848;-54
2022/05/25 07:09:03;;;;;;;1.30;0.70;;;;;;;27.10;38.34;100723.78;117257;1185;21865;-55
2022/05/25 07:11:35;;;;;;;3.30;1.10;;;;;;;27.24;38.46;100723.11;117324;1188;21843;-54
2022/05/25 07:14:02;;;;;;;1.70;1.00;;;;;;;27.44;38.35;100729.50;117183;1186;23592;-54
2022/05/25 07:16:31;;;;;;;2.60;0.70;;;;;;;27.53;38.11;100728.28;117259;1186;23556;-57
2022/05/25 07:18:59;;;;;;;1.90;1.00;;;;;;;27.48;37.83;100730.77;117209;1183;21857;-55
2022/05/25 07:21:27;;;;;;;1.80;1.20;;;;;;;27.52;37.88;100726.33;117314;1182;24152;-57
2022/05/25 07:23:56;;;;;;;1.50;0.80;;;;;;;27.70;37.92;100727.09;117341;1185;23637;-57
2022/05/25 07:26:23;;;;;;;1.70;0.70;;;;;;;27.85;37.75;100731.37;117177;1185;21861;-54
2022/05/25 07:28:51;;;;;;;1.90;0.60;;;;;;;27.90;37.45;100729.86;117210;1186;22936;-57
2022/05/25 07:31:34;;;;;;;1.10;0.80;;;;;;;27.97;37.13;100731.55;117264;1186;23260;-57
2022/05/25 07:34:05;;;;;;;3.90;1.20;;;;;;;28.07;36.98;100731.98;117185;1186;21847;-55
2022/05/25 07:36:33;;;;;;;3.50;1.20;;;;;;;28.20;36.78;100733.47;117252;1184;22919;-55
2022/05/25 07:39:03;;;;;;;2.80;0.60;;;;;;;28.32;36.50;100734.83;117019;1187;23560;-58
2022/05/25 07:41:30;;;;;;;1.70;0.60;;;;;;;28.37;36.20;100733.86;117319;1185;22818;-55
2022/05/25 07:43:59;;;;;;;1.80;0.80;;;;;;;28.42;36.38;100735.45;117299;1182;24152;-55
2022/05/25 07:46:28;;;;;;;1.30;0.80;;;;;;;28.55;36.33;100733.86;117189;1188;23466;-58
2022/05/25 07:48:55;;;;;;;1.70;0.80;;;;;;;28.64;36.26;100735.80;117241;1186;21872;-57
2022/05/25 07:51:22;;;;;;;1.30;0.90;;;;;;;28.71;36.30;100735.83;117270;1186;23458;-58
2022/05/25 07:53:55;;;;;;;1.70;0.70;;;;;;;28.77;36.33;100738.05;117331;1186;21845;-58
2022/05/25 07:56:29;;;;;;;1.00;0.70;;;;;;;28.77;36.00;100737.63;117231;1183;21851;-55
2022/05/25 07:59:01;;;;;;;1.60;0.70;;;;;;;28.70;35.70;100736.60;117254;1186;23517;-55
2022/05/25 08:07:03;;;;;;;8.70;1.40;;;;;;;28.62;35.57;100747.38;116859;1187;22896;-58
2022/05/25 08:09:30;;;;;;;1.30;0.80;;;;;;;28.79;35.85;100740.73;117387;1183;22971;-56
2022/05/25 08:11:57;;;;;;;1.90;0.80;;;;;;;29.13;35.73;100739.89;117356;1185;24235;-55
2022/05/25 08:14:25;;;;;;;2.60;0.90;;;;;;;29.43;35.53;100736.45;117266;1186;23545;-57
2022/05/25 08:16:53;;;;;;;1.70;1.00;;;;;;;29.76;35.60;100734.13;117141;1186;22912;-58
2022/05/25 08:19:19;;;;;;;1.90;0.90;;;;;;;30.02;35.29;100731.58;117293;1186;22918;-56
2022/05/25 08:21:47;;;;;;;4.20;1.50;;;;;;;30.05;34.76;100733.93;117221;1183;22915;-55
2022/05/25 08:24:15;;;;;;;5.60;0.90;;;;;;;29.96;34.43;100740.39;117200;1188;22890;-58
2022/05/25 08:26:41;;;;;;;2.00;0.70;;;;;;;29.87;34.24;100739.32;117063;1186;23541;-57
2022/05/25 08:29:08;;;;;;;1.90;1.10;;;;;;;29.68;34.09;100742.76;117351;1185;21843;-58
2022/05/25 08:31:36;;;;;;;1.50;1.00;;;;;;;29.56;34.29;100743.10;117248;1183;24166;-56
2022/05/25 08:34:04;;;;;;;1.90;0.90;;;;;;;29.63;34.20;100745.88;117170;1188;23461;-55
2022/05/25 08:36:31;;;;;;;1.70;1.00;;;;;;;29.69;34.10;100749.23;117256;1185;22896;-58
2022/05/25 08:38:58;;;;;;;3.00;0.80;;;;;;;29.68;33.98;100750.77;117462;1183;21867;-54
2022/05/25 08:41:30;;;;;;;5.00;1.00;;;;;;;29.78;33.72;100752.78;117135;1183;21897;-56
2022/05/25 08:43:57;;;;;;;0.90;0.80;;;;;;;29.79;33.66;100748.85;117033;1190;21868;-57
2022/05/25 08:46:25;;;;;;;2.00;0.90;;;;;;;29.76;33.46;100749.66;116943;1186;22923;-58
2022/05/25 08:48:52;;;;;;;1.40;0.80;;;;;;;29.77;33.71;100749.79;117116;1186;21857;-55
2022/05/25 08:51:33;;;;;;;2.40;0.90;;;;;;;29.80;33.31;100748.11;117184;1186;23826;-57
2022/05/25 08:54:00;;;;;;;1.20;0.70;;;;;;;29.70;32.87;100749.85;116987;1189;23579;-56
2022/05/25 08:56:38;;;;;;;1.90;0.90;;;;;;;29.43;32.70;100753.23;117149;1188;24218;-55
2022/05/25 08:59:08;;;;;;;1.70;1.00;;;;;;;29.19;32.43;100754.16;117374;1185;21840;-56
2022/05/25 09:01:56;;;;;;;2.50;1.00;;;;;;;29.12;32.84;100752.46;117183;1189;21855;-57
2022/05/25 09:04:30;;;;;;;2.00;0.90;;;;;;;29.26;32.66;100755.23;117239;1186;21914;-56
2022/05/25 09:07:17;;;;;;;1.80;1.00;;;;;;;29.43;32.83;100753.41;117183;1184;21848;-57
2022/05/25 09:09:46;;;;;;;2.40;0.90;;;;;;;29.67;33.04;100752.09;117221;1185;22639;-54
2022/05/25 09:12:41;;;;;;;2.80;0.80;;;;;;;29.93;33.20;100750.52;117255;1185;23542;-54
2022/05/25 09:15:08;;;;;;;2.90;1.00;;;;;;;30.23;32.88;100751.76;117245;1185;24291;-56
2022/05/25 09:17:41;;;;;;;1.60;0.90;;;;;;;30.28;32.40;100745.88;117192;1185;21841;-54
2022/05/25 09:20:12;;;;;;;2.40;0.80;;;;;;;30.35;32.52;100743.61;117230;1182;22648;-56
2022/05/25 09:22:41;;;;;;;2.40;1.20;;;;;;;30.42;32.09;100747.70;117304;1181;21855;-56
2022/05/25 09:25:12;;;;;;;3.20;1.00;;;;;;;30.40;31.94;100746.58;117443;1185;24169;-57
2022/05/25 09:27:53;;;;;;;4.10;1.30;;;;;;;30.32;31.98;100744.63;117303;1182;23611;-57
2022/05/25 09:30:20;;;;;;;1.50;0.80;;;;;;;30.23;31.87;100741.62;117049;1185;23553;-54
2022/05/25 09:32:56;;;;;;;5.40;1.10;;;;;;;30.20;32.06;100733.77;117123;1186;22005;-57
2022/05/25 09:35:29;;;;;;;17.90;1.90;;;;;;;30.34;31.61;100725.27;118161;1182;22919;-57
2022/05/25 09:37:58;;;;;;;4.20;1.10;;;;;;;30.64;31.20;100730.51;117123;1183;21856;-57
2022/05/25 09:40:41;;;;;;;2.60;1.10;;;;;;;30.84;31.02;100732.67;117190;1183;21854;-57
2022/05/25 09:43:09;;;;;;;6.10;0.90;;;;;;;30.96;31.53;100735.75;117159;1182;22236;-54
2022/05/25 09:45:42;;;;;;;3.00;1.00;;;;;;;31.16;31.76;100737.30;117161;1183;23545;-54
2022/05/25 09:48:29;;;;;;;2.60;0.70;;;;;;;31.24;31.53;100727.17;117127;1188;23544;-54
2022/05/25 09:51:05;;;;;;;2.20;1.10;;;;;;;31.27;31.33;100726.29;117138;1182;21858;-53
2022/05/25 09:53:37;;;;;;;2.00;1.00;;;;;;;31.30;31.35;100729.99;117129;1189;23439;-57
2022/05/25 09:56:09;;;;;;;1.90;1.10;;;;;;;31.40;30.80;100731.66;117149;1182;21862;-57
2022/05/25 09:58:38;;;;;;;1.90;0.90;;;;;;;31.48;31.20;100727.57;117268;1186;21873;-56
2022/05/25 10:01:08;;;;;;;1.70;0.80;;;;;;;31.69;30.27;100729.44;117178;1183;24704;-57
2022/05/25 10:03:42;;;;;;;2.30;0.90;;;;;;;31.77;30.70;100731.38;117200;1185;21983;-58
2022/05/25 10:06:24;;;;;;;6.90;1.10;;;;;;;31.96;30.91;100729.58;117213;1183;22180;-58
2022/05/25 10:09:25;;;;;;;2.30;1.10;;;;;;;32.10;30.43;100728.21;117103;1186;23544;-58
2022/05/25 10:11:54;;;;;;;1.70;0.90;;;;;;;31.99;30.22;100723.34;117224;1185;23200;-57
2022/05/25 10:14:35;;;;;;;4.50;1.30;;;;;;;31.75;30.10;100719.19;117232;1185;24278;-57
2022/05/25 10:17:15;;;;;;;4.90;1.10;;;;;;;31.41;29.82;100720.09;117095;1182;24130;-58
2022/05/25 10:19:50;;;;;;;2.70;0.90;;;;;;;31.05;29.69;100715.12;117160;1182;23523;-58
2022/05/25 10:22:38;;;;;;;9.30;1.80;;;;;;;30.86;29.77;100714.56;117287;1186;21877;-58
2022/05/25 10:25:07;;;;;;;3.00;0.90;;;;;;;30.90;29.70;100716.84;117105;1185;23442;-58
2022/05/25 10:27:43;;;;;;;2.40;1.10;;;;;;;30.97;29.58;100712.27;117223;1186;24155;-57
2022/05/25 10:38:47;;;;;;;1.40;0.90;;;;;;;31.89;29.27;100702.48;117126;1186;22368;-57
2022/05/25 10:44:08;;;;;;;3.20;1.20;;;;;;;32.23;29.72;100690.45;116981;1187;21991;-57
2022/05/25 10:46:36;;;;;;;3.80;0.90;;;;;;;32.50;29.55;100694.30;117037;1186;22864;-57
2022/05/25 10:49:10;;;;;;;3.50;1.00;;;;;;;32.53;29.26;100689.90;117198;1183;22615;-56
2022/05/25 10:51:47;;;;;;;4.00;1.00;;;;;;;32.49;29.27;100685.38;117160;1186;21892;-56
2022/05/25 10:54:47;;;;;;;2.10;0.90;;;;;;;32.53;29.22;100683.67;117074;1182;21853;-56
2022/05/25 10:57:54;;;;;;;1.70;0.90;;;;;;;32.64;29.14;100684.59;117177;1186;22140;-57
2022/05/25 11:00:34;;;;;;;1.90;1.50;;;;;;;32.71;29.04;100686.60;117313;1182;22441;-56
2022/05/25 11:03:27;;;;;;;1.20;0.80;;;;;;;32.56;28.68;100686.84;117231;1183;23269;-58
2022/05/25 11:06:00;;;;;;;5.30;1.20;;;;;;;32.31;28.63;100688.41;117006;1186;23639;-59
2022/05/25 11:08:27;;;;;;;3.00;1.00;;;;;;;32.17;28.71;100684.70;117172;1186;22318;-59
2022/05/25 11:11:14;;;;;;;2.40;1.10;;;;;;;32.22;29.01;100688.51;117204;1185;21938;-59
2022/05/25 11:14:00;;;;;;;4.00;1.20;;;;;;;32.28;28.50;100687.09;117675;1186;21856;-59
2022/05/25 11:16:38;;;;;;;5.30;1.20;;;;;;;31.96;28.11;100686.70;117263;1186;21848;-59
2022/05/25 11:19:20;;;;;;;3.10;0.90;;;;;;;31.65;28.28;100682.85;117272;1186;22991;-58
2022/05/25 11:22:16;;;;;;;2.60;1.40;;;;;;;31.54;27.89;100684.93;117144;1186;21848;-56
2022/05/25 11:25:18;;;;;;;1.60;1.00;;;;;;;31.32;27.92;100688.66;117117;1183;22655;-56
2022/05/25 11:28:06;;;;;;;2.50;1.10;;;;;;;31.14;28.04;100688.42;117196;1186;21853;-57
2022/05/25 11:30:39;;;;;;;3.80;1.40;;;;;;;30.98;27.69;100685.52;117079;1182;21842;-57
2022/05/25 11:33:17;;;;;;;3.00;1.10;;;;;;;30.77;27.38;100687.89;117295;1186;23465;-57
2022/05/25 11:36:12;;;;;;;1.30;0.90;;;;;;;30.47;27.60;100686.23;117033;1187;23569;-54
2022/05/25 11:38:40;;;;;;;4.10;1.10;;;;;;;30.19;27.77;100689.15;117879;1186;21859;-55
2022/05/25 11:41:40;;;;;;;2.10;1.20;;;;;;;29.93;27.41;100691.94;117203;1182;21912;-54
2022/05/25 11:44:20;;;;;;;3.10;1.10;;;;;;;29.62;27.22;100688.05;117201;1182;22909;-53
2022/05/25 11:46:49;;;;;;;3.50;1.30;;;;;;;29.50;26.84;100692.11;117156;1186;21934;-54
2022/05/25 11:49:57;;;;;;;1.60;1.10;;;;;;;29.45;27.06;100693.23;117115;1188;23643;-54
2022/05/25 11:52:40;;;;;;;2.90;1.20;;;;;;;29.61;27.56;100694.43;117266;1185;23445;-55
2022/05/25 11:55:33;;;;;;;2.30;0.90;;;;;;;29.91;27.94;100697.02;117309;1181;21850;-55
2022/05/25 11:58:27;;;;;;;4.30;1.20;;;;;;;30.14;27.87;100691.61;117262;1186;21855;-56
2022/05/25 12:01:06;;;;;;;3.90;1.20;;;;;;;30.18;27.14;100695.20;117140;1186;21864;-56
2022/05/25 12:03:51;;;;;;;3.90;1.40;;;;;;;30.05;27.26;100690.23;117304;1186;21896;-57
2022/05/25 12:06:43;;;;;;;4.30;1.30;;;;;;;30.04;27.64;100691.71;117110;1185;21932;-56
2022/05/25 12:09:19;;;;;;;3.90;0.90;;;;;;;30.26;27.45;100695.75;117259;1186;21976;-56
2022/05/25 12:12:07;;;;;;;2.60;1.10;;;;;;;30.36;27.30;100701.12;117208;1186;21853;-56